This is the latest recevied weather packets stored in our database for station/object W4IFI. If no packets are shown the sender has not sent any weather packets the latest 10 day(s).
| Time | Temp. | Humidity | Pressure | Rain* | Wind** | Luminosity | Snow |
|---|---|---|---|---|---|---|---|
| 1777528038 | 2.78° C | 48% | 1015.7 hPa | 0 mm | - | - | - |
| 1777527003 | 2.22° C | 50% | 1015.8 hPa | 0 mm | - | - | - |
| 1777526537 | 2.78° C | 47% | 1015.8 hPa | 0 mm | - | - | - |
| 1777525803 | 3.89° C | 42% | 1015.8 hPa | 0 mm | - | - | - |
| 1777522803 | 6.11° C | 36% | 1016.1 hPa | 0 mm | - | - | - |
| 1777522203 | 6.11° C | 36% | 1016.3 hPa | 0 mm | - | - | - |
| 1777521303 | 6.11° C | 35% | 1016.4 hPa | 0 mm | - | - | - |
| 1777520103 | 6.67° C | 35% | 1016.1 hPa | 0 mm | - | - | - |
| 1777519803 | 6.67° C | 34% | 1016 hPa | 0 mm | - | - | - |
| 1777518003 | 7.22° C | 32% | 1015.8 hPa | 0 mm | - | - | - |
| 1777517403 | 7.78° C | 31% | 1015.6 hPa | 0 mm | - | - | - |
| 1777516037 | 8.33° C | 27% | 1015.7 hPa | 0 mm | - | - | - |
| 1777514103 | 11.11° C | 22% | 1015.3 hPa | 0 mm | - | - | - |
| 1777512303 | 12.22° C | 19% | 1015.1 hPa | 0 mm | - | - | - |
| 1777512003 | 12.78° C | 19% | 1015 hPa | 0 mm | - | - | - |
| 1777511103 | 12.78° C | 17% | 1014.9 hPa | 0 mm | - | - | - |
| 1777506603 | 13.89° C | 16% | 1014.9 hPa | 0 mm | - | - | - |
| 1777503903 | 13.89° C | 16% | 1014.7 hPa | 0 mm | - | - | - |
| 1777503603 | 13.89° C | 16% | 1014.8 hPa | 0 mm | - | - | - |
| 1777502403 | 13.33° C | 16% | 1014.8 hPa | 0 mm | - | - | - |
| 1777501503 | 13.89° C | 17% | 1014.9 hPa | 0 mm | - | - | - |
| 1777501203 | 13.89° C | 17% | 1015 hPa | 0 mm | - | - | - |
| 1777498938 | 13.89° C | 17% | 1015.3 hPa | 0 mm | - | - | - |
| 1777498503 | 13.89° C | 17% | 1015.4 hPa | 0 mm | - | - | - |
| 1777496103 | 13.33° C | 16% | 1015.6 hPa | 0 mm | - | - | - |
* Rain latest hour (hover to see other rain measurements)
** Current wind speed in m/s (hover to see current wind gust speed)